createdAt,value
2023-01-21T00:00:48.093Z,92.77
2023-01-21T00:04:46.042Z,92.67
2023-01-21T00:08:47.159Z,92.65
2023-01-21T00:12:46.026Z,92.59
2023-01-21T00:16:44.101Z,92.53
2023-01-21T00:20:42.078Z,92.59
2023-01-21T00:24:40.975Z,92.56
2023-01-21T00:28:39.064Z,92.69
2023-01-21T00:32:40.326Z,92.82
2023-01-21T00:36:38.118Z,92.95
2023-01-21T00:40:35.967Z,93.08
2023-01-21T00:44:34.048Z,92.92
2023-01-21T00:48:31.935Z,93.07
2023-01-21T00:52:30.110Z,93.16
2023-01-21T00:56:27.949Z,93.39
2023-01-21T01:00:26.953Z,93.46
2023-01-21T01:04:26.918Z,93.56
2023-01-21T01:08:25.934Z,93.65
2023-01-21T01:12:23.998Z,93.73
2023-01-21T01:16:21.983Z,93.59
2023-01-21T01:20:19.953Z,93.52
2023-01-21T01:24:20.837Z,93.63
2023-01-21T01:28:19.906Z,93.75
2023-01-21T01:32:17.898Z,93.80
2023-01-21T01:36:21.907Z,93.86
2023-01-21T01:40:19.933Z,93.92
2023-01-21T01:44:13.978Z,93.96
2023-01-21T01:48:17.929Z,94.01
2023-01-21T01:52:19.864Z,94.06
2023-01-21T01:56:17.888Z,94.10
2023-01-21T02:00:23.850Z,94.08
2023-01-21T02:04:26.825Z,94.10
2023-01-21T02:08:26.843Z,94.10
2023-01-21T02:12:24.905Z,94.15
2023-01-21T02:16:22.856Z,94.14
2023-01-21T02:20:26.839Z,94.02
2023-01-21T02:24:50.795Z,93.94
2023-01-21T02:29:33.819Z,93.96
2023-01-21T02:33:31.820Z,93.97
2023-01-21T02:37:43.779Z,93.95
2023-01-21T02:42:11.900Z,93.90
2023-01-21T02:46:32.878Z,93.90
2023-01-21T02:50:44.917Z,93.80
2023-01-21T02:54:55.855Z,93.69
2023-01-21T02:59:01.772Z,93.67
2023-01-21T03:03:33.819Z,93.82
2023-01-21T03:07:44.734Z,93.89
2023-01-21T03:11:42.749Z,93.80
2023-01-21T03:16:22.800Z,93.84
2023-01-21T03:20:42.758Z,93.92
2023-01-21T03:24:40.767Z,93.78
2023-01-21T03:28:40.917Z,93.42
2023-01-21T03:32:41.829Z,93.45
2023-01-21T03:37:15.747Z,93.52
2023-01-21T03:41:23.987Z,93.69
2023-01-21T03:45:21.811Z,93.81
2023-01-21T03:49:45.695Z,93.87
2023-01-21T03:53:43.755Z,93.93
2023-01-21T03:57:42.694Z,93.93
2023-01-21T04:01:41.732Z,93.94
2023-01-21T04:05:39.694Z,93.95
2023-01-21T04:09:37.779Z,93.99
2023-01-21T04:13:35.705Z,93.99
2023-01-21T04:17:34.656Z,94.00
2023-01-21T04:21:32.744Z,94.02
2023-01-21T04:25:30.626Z,93.98
2023-01-21T04:29:28.642Z,94.00
2023-01-21T04:33:26.629Z,94.00
2023-01-21T04:37:34.698Z,93.96
2023-01-21T04:41:32.632Z,93.96
2023-01-21T04:45:32.608Z,93.96
2023-01-21T04:49:31.643Z,93.94
2023-01-21T04:53:30.703Z,93.94
2023-01-21T04:57:28.710Z,93.91
2023-01-21T05:01:26.573Z,93.93
2023-01-21T05:05:24.591Z,93.94
2023-01-21T05:09:22.562Z,93.97
2023-01-21T05:13:20.598Z,94.00
2023-01-21T05:17:18.609Z,94.03
2023-01-21T05:21:16.559Z,94.08
2023-01-21T05:25:15.553Z,94.11
2023-01-21T05:29:13.536Z,94.13
2023-01-21T05:33:11.547Z,94.16
2023-01-21T05:37:09.615Z,94.23
2023-01-21T05:41:17.572Z,94.27
2023-01-21T05:45:15.583Z,94.26
2023-01-21T05:49:13.558Z,94.26
2023-01-21T05:53:11.528Z,94.24
2023-01-21T05:57:09.494Z,94.24
2023-01-21T06:01:09.513Z,94.23
2023-01-21T06:05:07.636Z,94.26
2023-01-21T06:09:05.498Z,94.23
2023-01-21T06:13:07.432Z,94.23
2023-01-21T06:17:05.562Z,94.19
2023-01-21T06:21:03.565Z,94.20
2023-01-21T06:25:01.562Z,94.18
2023-01-21T06:28:59.492Z,94.19
2023-01-21T06:32:59.840Z,94.15
2023-01-21T06:36:57.456Z,94.15
2023-01-21T06:40:56.507Z,94.13
2023-01-21T06:44:54.391Z,93.99
2023-01-21T06:48:52.461Z,93.98
2023-01-21T06:52:50.461Z,94.04
2023-01-21T06:56:50.476Z,94.08
2023-01-21T07:00:48.437Z,94.13
2023-01-21T07:04:46.461Z,94.18
2023-01-21T07:08:44.639Z,94.23
2023-01-21T07:12:42.454Z,94.27
2023-01-21T07:16:40.388Z,94.28
2023-01-21T07:20:40.714Z,94.31
2023-01-21T07:24:38.460Z,94.29
2023-01-21T07:28:37.380Z,94.27
2023-01-21T07:32:35.447Z,94.26
2023-01-21T07:36:33.371Z,94.26
2023-01-21T07:40:31.375Z,94.20
2023-01-21T07:44:29.377Z,94.19
2023-01-21T07:48:28.387Z,94.17
2023-01-21T07:52:26.338Z,94.07
2023-01-21T07:56:24.445Z,94.03
2023-01-21T08:00:23.343Z,94.06
2023-01-21T08:04:21.307Z,94.13
2023-01-21T08:08:19.298Z,93.96
2023-01-21T08:12:19.325Z,93.77
2023-01-21T08:16:18.362Z,93.76
2023-01-21T08:20:16.313Z,93.75
2023-01-21T08:24:14.393Z,93.74
2023-01-21T08:28:14.280Z,93.75
2023-01-21T08:32:12.298Z,93.74
2023-01-21T08:36:14.286Z,93.73
2023-01-21T08:40:12.275Z,93.73
2023-01-21T08:44:10.323Z,93.75
2023-01-21T08:48:08.256Z,93.76
2023-01-21T08:52:07.227Z,93.79
2023-01-21T08:56:05.243Z,93.77
2023-01-21T09:00:03.272Z,93.79
2023-01-21T09:04:01.301Z,93.79
2023-01-21T09:07:59.228Z,93.81
2023-01-21T09:11:57.223Z,93.85
2023-01-21T09:15:56.308Z,93.87
2023-01-21T09:19:55.526Z,93.86
2023-01-21T09:23:55.293Z,93.90
2023-01-21T09:27:53.314Z,93.90
2023-01-21T09:31:51.273Z,93.89
2023-01-21T09:35:49.267Z,93.91
2023-01-21T09:39:49.140Z,93.94
2023-01-21T09:43:53.317Z,93.95
2023-01-21T09:47:54.271Z,93.98
2023-01-21T09:52:04.177Z,94.02
2023-01-21T09:56:04.250Z,94.12
2023-01-21T10:00:17.303Z,94.19
2023-01-21T10:04:30.281Z,94.13
2023-01-21T10:08:43.155Z,93.97
2023-01-21T10:13:08.143Z,93.79
2023-01-21T10:17:38.145Z,93.55
2023-01-21T10:21:51.120Z,93.22
2023-01-21T10:25:53.129Z,92.80
2023-01-21T10:29:54.109Z,92.56
2023-01-21T10:33:52.213Z,92.61
2023-01-21T10:38:05.094Z,92.40
2023-01-21T10:42:32.093Z,92.42
2023-01-21T10:47:15.090Z,92.49
2023-01-21T10:51:33.195Z,92.31
2023-01-21T10:56:01.071Z,92.35
2023-01-21T11:00:00.081Z,92.36
2023-01-21T11:04:06.046Z,92.35
2023-01-21T11:08:04.125Z,92.15
2023-01-21T11:12:02.043Z,92.01
2023-01-21T11:16:11.113Z,91.88
2023-01-21T11:20:37.057Z,91.52
2023-01-21T11:24:37.059Z,91.10
2023-01-21T11:28:42.048Z,91.11
2023-01-21T11:32:42.051Z,91.16
2023-01-21T11:36:39.996Z,91.04
2023-01-21T11:40:41.093Z,90.95
2023-01-21T11:44:40.043Z,90.78
2023-01-21T11:48:38.047Z,90.72
2023-01-21T11:52:36.057Z,90.40
2023-01-21T11:56:35.082Z,90.12
2023-01-21T12:00:36.024Z,89.86
2023-01-21T12:04:34.009Z,89.57
2023-01-21T12:08:49.011Z,89.51
2023-01-21T12:12:57.078Z,89.69
2023-01-21T12:17:33.594Z,89.32
2023-01-21T12:21:58.990Z,89.12
2023-01-21T12:26:12.019Z,88.98
2023-01-21T12:30:35.941Z,88.93
2023-01-21T12:34:55.927Z,88.87
2023-01-21T12:39:25.989Z,88.70
2023-01-21T12:43:32.935Z,88.70
2023-01-21T12:47:39.937Z,88.55
2023-01-21T12:51:44.930Z,88.27
2023-01-21T12:55:48.917Z,88.09
2023-01-21T12:59:55.908Z,87.10
2023-01-21T13:04:31.955Z,87.07
2023-01-21T13:08:51.000Z,86.58
2023-01-21T13:12:51.961Z,86.39
2023-01-21T13:16:53.870Z,86.19
2023-01-21T13:20:56.952Z,86.04
2023-01-21T13:25:22.970Z,85.22
2023-01-21T13:29:35.884Z,85.47
2023-01-21T13:33:47.484Z,85.32
2023-01-21T13:38:10.872Z,85.01
2023-01-21T13:42:22.975Z,84.64
2023-01-21T13:46:45.281Z,84.11
2023-01-21T13:50:55.893Z,84.09
2023-01-21T13:55:17.934Z,84.14
2023-01-21T13:59:20.927Z,84.07
2023-01-21T14:03:47.889Z,84.03
2023-01-21T14:07:56.825Z,84.08
2023-01-21T14:12:05.963Z,84.13
2023-01-21T14:16:22.926Z,84.34
2023-01-21T14:20:43.944Z,84.65
2023-01-21T14:24:58.793Z,84.92
2023-01-21T14:29:34.954Z,85.09
2023-01-21T14:33:40.814Z,85.36
2023-01-21T14:37:45.862Z,85.56
2023-01-21T14:42:15.807Z,85.73
2023-01-21T14:46:14.798Z,85.83
2023-01-21T14:50:13.759Z,85.91
2023-01-21T14:54:14.838Z,85.96
2023-01-21T14:58:14.870Z,86.04
2023-01-21T15:02:14.910Z,86.14
2023-01-21T15:06:22.755Z,86.30
2023-01-21T15:10:41.782Z,86.43
2023-01-21T15:14:42.790Z,86.56
2023-01-21T15:18:51.868Z,86.65
2023-01-21T15:22:55.732Z,86.80
2023-01-21T15:26:53.732Z,86.79
2023-01-21T15:30:58.682Z,86.87
2023-01-21T15:35:47.430Z,87.18
2023-01-21T15:39:48.428Z,87.29
2023-01-21T15:44:05.466Z,87.40
2023-01-21T15:48:12.451Z,87.50
2023-01-21T15:52:35.513Z,87.58
2023-01-21T15:57:09.331Z,87.66
2023-01-21T16:01:24.405Z,87.74
2023-01-21T16:05:38.457Z,87.83
2023-01-21T16:09:42.480Z,87.91
2023-01-21T16:14:11.662Z,87.96
2023-01-21T16:18:42.337Z,88.01
2023-01-21T16:22:45.339Z,88.06
2023-01-21T16:26:45.335Z,88.10
2023-01-21T16:30:46.439Z,88.15
2023-01-21T16:34:57.341Z,88.18
2023-01-21T16:38:57.355Z,88.21
2023-01-21T16:42:55.302Z,88.24
2023-01-21T16:46:55.330Z,88.27
2023-01-21T16:50:53.290Z,88.28
2023-01-21T16:55:03.478Z,88.32
2023-01-21T16:59:02.346Z,88.36
2023-01-21T17:03:01.361Z,88.32
2023-01-21T17:07:00.261Z,88.34
2023-01-21T17:11:11.268Z,88.37
2023-01-21T17:15:17.666Z,88.40
2023-01-21T17:19:23.239Z,88.41
2023-01-21T17:23:39.266Z,88.43
2023-01-21T17:27:37.255Z,88.45
2023-01-21T17:31:41.406Z,88.42
2023-01-21T17:35:40.189Z,88.43
2023-01-21T17:40:03.225Z,88.44
2023-01-21T17:44:04.185Z,88.46
2023-01-21T17:48:10.999Z,88.49
2023-01-21T17:52:12.264Z,88.52
2023-01-21T17:56:19.241Z,88.55
2023-01-21T18:00:38.204Z,88.56
2023-01-21T18:04:37.206Z,88.61
2023-01-21T18:08:35.154Z,88.63
2023-01-21T18:12:33.213Z,88.65
2023-01-21T18:16:31.191Z,88.66
2023-01-21T18:20:35.310Z,88.68
2023-01-21T18:24:33.143Z,88.70
2023-01-21T18:28:42.135Z,88.71
2023-01-21T18:32:42.649Z,88.74
2023-01-21T18:36:40.115Z,88.74
2023-01-21T18:40:39.204Z,88.74
2023-01-21T18:44:37.159Z,88.74
2023-01-21T18:48:37.081Z,88.71
2023-01-21T18:52:36.208Z,88.71
2023-01-21T18:56:34.278Z,88.72
2023-01-21T19:00:42.218Z,88.72
2023-01-21T19:04:40.168Z,88.72
2023-01-21T19:08:38.112Z,88.72
2023-01-21T19:12:37.109Z,88.70
2023-01-21T19:16:36.137Z,88.58
2023-01-21T19:20:36.068Z,88.25
2023-01-21T19:24:34.146Z,88.27
2023-01-21T19:28:32.085Z,88.31
2023-01-21T19:32:32.557Z,88.31
2023-01-21T19:36:33.328Z,88.36
2023-01-21T19:40:36.074Z,88.43
2023-01-21T19:44:34.009Z,88.46
2023-01-21T19:48:37.086Z,88.50
2023-01-21T19:52:34.973Z,88.53
2023-01-21T19:56:38.128Z,88.53
2023-01-21T20:00:39.023Z,88.58
2023-01-21T20:04:37.044Z,88.58
2023-01-21T20:08:38.978Z,87.79
2023-01-21T20:12:36.979Z,87.82
2023-01-21T20:16:35.005Z,87.87
2023-01-21T20:20:38.025Z,87.94
2023-01-21T20:24:37.020Z,88.01
2023-01-21T20:28:44.213Z,88.07
2023-01-21T20:32:42.089Z,87.26
2023-01-21T20:36:40.960Z,86.75
2023-01-21T20:40:44.189Z,86.66
2023-01-21T20:44:41.979Z,86.76
2023-01-21T20:48:50.009Z,86.94
2023-01-21T20:52:48.941Z,87.18
2023-01-21T20:56:46.892Z,87.39
2023-01-21T21:00:47.001Z,87.55
2023-01-21T21:04:44.908Z,87.70
2023-01-21T21:08:43.089Z,87.82
2023-01-21T21:12:40.941Z,87.93
2023-01-21T21:16:43.942Z,88.03
2023-01-21T21:20:50.899Z,88.12
2023-01-21T21:24:49.089Z,88.19
2023-01-21T21:28:46.873Z,88.23
2023-01-21T21:32:45.031Z,88.27
2023-01-21T21:36:42.856Z,88.33
2023-01-21T21:40:41.885Z,88.36
2023-01-21T21:44:39.861Z,88.43
2023-01-21T21:48:48.859Z,88.46
2023-01-21T21:52:46.932Z,88.47
2023-01-21T21:56:44.844Z,88.49
2023-01-21T22:00:42.893Z,88.50
2023-01-21T22:04:40.831Z,88.51
2023-01-21T22:08:38.772Z,88.54
2023-01-21T22:12:36.940Z,88.53
2023-01-21T22:16:38.847Z,88.21
2023-01-21T22:20:37.085Z,88.04
2023-01-21T22:24:34.960Z,87.99
2023-01-21T22:28:34.845Z,88.12
2023-01-21T22:32:33.172Z,88.22
2023-01-21T22:36:34.902Z,88.32
2023-01-21T22:40:32.775Z,88.42
2023-01-21T22:44:30.784Z,88.52
2023-01-21T22:48:28.730Z,88.59
2023-01-21T22:52:27.876Z,88.63
2023-01-21T22:56:49.590Z,88.70
2023-01-21T23:00:50.869Z,88.75
2023-01-21T23:04:49.746Z,88.82
2023-01-21T23:08:50.768Z,88.86
2023-01-21T23:12:48.794Z,88.61
2023-01-21T23:16:46.878Z,88.67
2023-01-21T23:20:44.709Z,89.03
2023-01-21T23:24:42.741Z,89.35
2023-01-21T23:28:40.725Z,89.60
2023-01-21T23:32:38.730Z,89.73
2023-01-21T23:36:36.788Z,89.95
2023-01-21T23:40:34.805Z,90.16
2023-01-21T23:44:32.780Z,90.31
2023-01-21T23:48:31.100Z,90.59
2023-01-21T23:52:37.703Z,90.83
2023-01-21T23:56:37.887Z,91.03
